Sbi Mazurka — D5LD4 — position and weather

sailwx.info

Track history (hours):
 
Tides and Currents Weather Stations Pressure Air Temp Water Temp Dewpoint Dewpoint Depression Visibility Wind Speed Wind Dir Waves Ship Positions

Sbi Mazurka

Last reported at 2018-Jan-19 16:53 UTC. Time now 2018-Jan-20 21:04 UTC.
Position N 28°02' W 016°19'.

Length 229 m; draft 7.4 m.

Type: Cargo ship. MMSI: 636017475.

Date/timePositionNaut miles runAvg speedWind from/ knotsBaromVisibWave heightAir tempDewpointWater temp
2018-Jan-19 16:53N 28°02' W 016°19'512.8
2018-Jan-19 16:29N 28°06' W 016°15'612.9
2018-Jan-19 16:00N 28°11' W 016°11'612.9
2018-Jan-19 15:30N 28°16' W 016°06'612.7
2018-Jan-19 15:00N 28°21' W 016°01'612.4
2018-Jan-19 14:31N 28°25' W 015°56'612.0
2018-Jan-19 14:01N 28°30' W 015°52'612.0
2018-Jan-19 13:31N 28°35' W 015°48'612.1
2018-Jan-19 13:00N 28°39' W 015°44'612.1
2018-Jan-19 12:30N 28°43' W 015°38'612.2
2018-Jan-19 12:00N 28°47' W 015°33'612.1
2018-Jan-19 11:30N 28°51' W 015°28'612.3
2018-Jan-19 11:00N 28°55' W 015°23'612.2
2018-Jan-19 10:30N 28°59' W 015°17'612.1
2018-Jan-19 09:58N 29°04' W 015°12'  
2018-Jan-11 00:29N 44°17' E 014°18'612.6
2018-Jan-11 00:00N 44°22' E 014°14'612.5
2018-Jan-10 23:30N 44°27' E 014°09'612.4
2018-Jan-10 23:00N 44°34' E 014°08'612.6
2018-Jan-10 22:30N 44°40' E 014°08'612.6
2018-Jan-10 22:00N 44°46' E 014°08'713.2
2018-Jan-10 21:28N 44°53' E 014°11'713.1
2018-Jan-10 20:56N 44°60' E 014°13'913.0
2018-Jan-10 20:16N 45°08' E 014°15'411.8
2018-Jan-10 19:57N 45°11' E 014°18'612.2
2018-Jan-10 19:26N 45°14' E 014°26'  
Track history (hours):
 
Tides and Currents Weather Stations Pressure Air Temp Water Temp Dewpoint Dewpoint Depression Visibility Wind Speed Wind Dir Waves Ship Positions

Sbi Mazurka

Last reported at 2018-Jan-19 16:53 UTC. Time now 2018-Jan-20 21:04 UTC.
Position N 28°02' W 016°19'.

Length 229 m; draft 7.4 m.

Type: Cargo ship. MMSI: 636017475.

Date/timePositionNaut miles runAvg speedWind from/ knotsBaromVisibWave heightAir tempDewpointWater temp
2018-Jan-19 16:53N 28°02' W 016°19'512.8
2018-Jan-19 16:29N 28°06' W 016°15'612.9
2018-Jan-19 16:00N 28°11' W 016°11'612.9
2018-Jan-19 15:30N 28°16' W 016°06'612.7
2018-Jan-19 15:00N 28°21' W 016°01'612.4
2018-Jan-19 14:31N 28°25' W 015°56'612.0
2018-Jan-19 14:01N 28°30' W 015°52'612.0
2018-Jan-19 13:31N 28°35' W 015°48'612.1
2018-Jan-19 13:00N 28°39' W 015°44'612.1
2018-Jan-19 12:30N 28°43' W 015°38'612.2
2018-Jan-19 12:00N 28°47' W 015°33'612.1
2018-Jan-19 11:30N 28°51' W 015°28'612.3
2018-Jan-19 11:00N 28°55' W 015°23'612.2
2018-Jan-19 10:30N 28°59' W 015°17'612.1
2018-Jan-19 09:58N 29°04' W 015°12'  
2018-Jan-11 00:29N 44°17' E 014°18'612.6
2018-Jan-11 00:00N 44°22' E 014°14'612.5
2018-Jan-10 23:30N 44°27' E 014°09'612.4
2018-Jan-10 23:00N 44°34' E 014°08'612.6
2018-Jan-10 22:30N 44°40' E 014°08'612.6
2018-Jan-10 22:00N 44°46' E 014°08'713.2
2018-Jan-10 21:28N 44°53' E 014°11'713.1
2018-Jan-10 20:56N 44°60' E 014°13'913.0
2018-Jan-10 20:16N 45°08' E 014°15'411.8
2018-Jan-10 19:57N 45°11' E 014°18'612.2
2018-Jan-10 19:26N 45°14' E 014°26'  

Dump ship's entire track history